Time;durP1;ratioP1;P1;durP2;ratioP2;P2;SDS_P1;SDS_P2;PMS_P1;PMS_P2;Temp;Humidity;BMP_temperature;BMP_pressure;BME280_temperature;BME280_humidity;BME280_pressure;Samples;Min_cycle;Max_cycle;Signal;HPM_P1;HPM_P2
2022/04/22 00:01:16;;;;;;;29.17;22.53;;;;;;;12.33;100.00;99393.78;5029411;28;20220;-59
2022/04/22 00:03:43;;;;;;;34.10;23.30;;;;;;;12.35;100.00;99397.19;5029285;28;20218;-59
2022/04/22 00:06:10;;;;;;;34.60;25.87;;;;;;;12.30;100.00;99388.69;5029558;28;20591;-60
2022/04/22 00:08:37;;;;;;;34.13;25.90;;;;;;;12.32;100.00;99394.69;5029329;28;20197;-59
2022/04/22 00:13:49;;;;;;;39.07;26.13;;;;;;;12.05;100.00;99380.13;5029641;28;20280;-59
2022/04/22 00:16:18;;;;;;;34.77;25.13;;;;;;;12.03;100.00;99379.31;5034793;28;20205;-60
2022/04/22 00:18:45;;;;;;;34.40;24.43;;;;;;;12.10;100.00;99365.16;5067227;28;20199;-60
2022/04/22 00:21:12;;;;;;;33.10;24.97;;;;;;;11.98;100.00;99355.22;5068989;27;20199;-60
2022/04/22 00:23:40;;;;;;;30.50;23.87;;;;;;;12.05;100.00;99335.91;5068989;28;20230;-59
2022/04/22 00:26:07;;;;;;;31.30;24.33;;;;;;;11.99;100.00;99321.34;5068675;28;20239;-59
2022/04/22 00:28:34;;;;;;;32.13;24.57;;;;;;;11.76;100.00;99323.97;5069055;28;20286;-59
2022/04/22 00:31:01;;;;;;;34.33;24.93;;;;;;;11.76;100.00;99326.56;5069109;27;20665;-59
2022/04/22 00:33:29;;;;;;;29.60;24.03;;;;;;;11.87;100.00;99326.16;5068622;28;20232;-60
2022/04/22 00:35:56;;;;;;;31.63;23.40;;;;;;;11.97;100.00;99330.13;5068970;27;20654;-59
2022/04/22 00:38:23;;;;;;;33.03;25.43;;;;;;;11.92;100.00;99313.84;5068587;27;20209;-60
2022/04/22 00:40:52;;;;;;;35.03;25.40;;;;;;;11.89;100.00;99313.97;5069125;28;20595;-60
2022/04/22 00:43:21;;;;;;;36.27;26.10;;;;;;;11.94;100.00;99312.03;5068982;27;20665;-59
2022/04/22 00:45:48;;;;;;;34.07;25.37;;;;;;;12.00;100.00;99309.19;5068731;28;20201;-59
2022/04/22 00:48:17;;;;;;;35.03;27.23;;;;;;;11.93;100.00;99302.53;5068712;28;20218;-60
2022/04/22 00:50:45;;;;;;;34.83;25.50;;;;;;;11.80;100.00;99293.50;5043514;28;20201;-60
2022/04/22 00:53:13;;;;;;;33.53;24.53;;;;;;;11.64;100.00;99273.22;5028479;28;20201;-59
2022/04/22 00:55:42;;;;;;;34.40;25.67;;;;;;;11.83;100.00;99290.78;5028527;28;20197;-59
2022/04/22 00:58:10;;;;;;;34.60;24.63;;;;;;;11.75;100.00;99279.78;5028444;28;20197;-59
2022/04/22 01:00:38;;;;;;;36.60;25.33;;;;;;;11.93;100.00;99305.13;5028628;28;20587;-57
2022/04/22 01:03:06;;;;;;;35.27;25.07;;;;;;;11.82;100.00;99281.28;5028502;28;20205;-56
2022/04/22 01:11:04;;;;;;;32.27;24.47;;;;;;;11.97;100.00;99289.34;5035055;28;20200;-58
2022/04/22 01:13:31;;;;;;;31.57;24.07;;;;;;;11.88;100.00;99286.25;5036796;28;20203;-58
2022/04/22 01:15:59;;;;;;;29.83;23.33;;;;;;;11.94;100.00;99297.28;5038402;28;20193;-58
2022/04/22 01:18:26;;;;;;;33.57;23.97;;;;;;;11.82;100.00;99312.50;5030764;28;20203;-59
2022/04/22 01:20:53;;;;;;;29.60;24.13;;;;;;;11.51;100.00;99297.97;5028578;28;20202;-58
2022/04/22 01:23:21;;;;;;;30.73;23.90;;;;;;;11.67;100.00;99321.66;5028188;28;20654;-58
2022/04/22 01:25:48;;;;;;;30.83;23.60;;;;;;;11.79;100.00;99310.00;5027889;28;20229;-58
2022/04/22 01:28:15;;;;;;;35.47;23.67;;;;;;;11.76;100.00;99310.09;5028156;28;20197;-57
2022/04/22 01:30:42;;;;;;;34.27;24.43;;;;;;;11.75;100.00;99306.66;5028036;28;20280;-58
2022/04/22 01:33:09;;;;;;;28.87;23.37;;;;;;;11.65;100.00;99321.72;5035705;28;20196;-57
2022/04/22 01:35:36;;;;;;;33.57;23.73;;;;;;;11.63;100.00;99320.06;5047739;28;20193;-56
2022/04/22 01:38:03;;;;;;;33.83;24.87;;;;;;;11.48;100.00;99298.09;5047830;28;20590;-56
2022/04/22 01:40:32;;;;;;;29.80;24.17;;;;;;;11.56;100.00;99316.84;5047895;28;20193;-58
2022/04/22 01:42:59;;;;;;;32.87;24.20;;;;;;;11.63;100.00;99313.13;5047786;28;20197;-55
2022/04/22 01:45:26;;;;;;;30.87;25.30;;;;;;;11.77;100.00;99333.47;5047915;28;20590;-56
2022/04/22 01:47:52;;;;;;;34.90;25.63;;;;;;;11.65;100.00;99316.50;5047904;28;20235;-54
2022/04/22 01:50:19;;;;;;;32.60;24.67;;;;;;;11.76;100.00;99325.72;5047769;28;20196;-55
2022/04/22 01:52:46;;;;;;;35.93;25.67;;;;;;;11.77;100.00;99332.59;5047662;28;20200;-55
2022/04/22 01:55:13;;;;;;;34.10;24.83;;;;;;;11.77;100.00;99319.59;5047536;28;20200;-58
2022/04/22 01:57:42;;;;;;;30.33;24.97;;;;;;;11.74;100.00;99312.72;5047386;28;20197;-57
2022/04/22 02:00:10;;;;;;;29.97;24.97;;;;;;;11.69;100.00;99313.81;5047833;28;20590;-59
2022/04/22 02:02:38;;;;;;;28.93;24.77;;;;;;;11.71;100.00;99312.88;5047007;28;20771;-60
2022/04/22 02:05:06;;;;;;;30.50;24.87;;;;;;;11.67;100.00;99316.47;5047280;28;20217;-60
2022/04/22 02:07:33;;;;;;;29.77;23.90;;;;;;;11.61;100.00;99311.50;5047330;28;20245;-60
2022/04/22 02:10:00;;;;;;;31.70;25.30;;;;;;;11.68;100.00;99314.72;5047289;28;20201;-59
2022/04/22 02:12:27;;;;;;;31.90;25.30;;;;;;;11.65;100.00;99311.31;5047018;28;20201;-61
2022/04/22 02:14:56;;;;;;;33.37;24.97;;;;;;;11.68;100.00;99302.56;5047123;28;20197;-60
2022/04/22 02:17:23;;;;;;;32.90;25.03;;;;;;;11.73;100.00;99299.81;5047247;28;20196;-60
2022/04/22 02:19:50;;;;;;;29.90;24.47;;;;;;;11.73;100.00;99287.66;5047399;28;20583;-60
2022/04/22 02:22:17;;;;;;;29.30;24.67;;;;;;;11.66;100.00;99273.16;5047291;28;20206;-57
2022/04/22 02:24:44;;;;;;;38.63;26.73;;;;;;;11.34;100.00;99240.56;5047018;28;20230;-58
2022/04/22 02:29:56;;;;;;;33.93;24.67;;;;;;;11.65;100.00;99280.13;5047150;28;20204;-56
2022/04/22 02:32:23;;;;;;;30.33;24.30;;;;;;;11.65;100.00;99285.31;5046970;28;20193;-57
2022/04/22 02:34:50;;;;;;;36.10;24.40;;;;;;;11.64;100.00;99288.81;5047041;28;20193;-58
2022/04/22 02:37:17;;;;;;;29.40;23.60;;;;;;;11.65;100.00;99290.53;5046669;28;20599;-57
2022/04/22 02:39:43;;;;;;;28.43;23.33;;;;;;;11.66;100.00;99291.38;5046722;28;20207;-57
2022/04/22 02:47:55;;;;;;;30.00;23.10;;;;;;;11.59;100.00;99254.38;4966081;28;20211;-59
2022/04/22 02:50:22;;;;;;;31.50;24.07;;;;;;;11.52;100.00;99252.88;4966046;28;20723;-58
2022/04/22 02:52:49;;;;;;;27.77;24.00;;;;;;;11.57;100.00;99244.94;5001705;28;20193;-58
2022/04/22 02:55:16;;;;;;;37.00;25.70;;;;;;;11.58;100.00;99251.81;5046851;28;20312;-60
2022/04/22 02:57:45;;;;;;;29.37;24.20;;;;;;;11.65;100.00;99259.31;5047209;28;20196;-60
2022/04/22 03:00:14;;;;;;;32.30;23.97;;;;;;;11.66;100.00;99262.78;5046680;28;20745;-60
2022/04/22 03:02:42;;;;;;;32.37;24.13;;;;;;;11.62;100.00;99269.00;5046717;28;20203;-60
2022/04/22 03:05:10;;;;;;;29.63;23.10;;;;;;;11.69;100.00;99267.00;5046190;28;20232;-60
2022/04/22 03:07:37;;;;;;;26.00;22.00;;;;;;;11.69;100.00;99264.41;5046669;28;20201;-57
2022/04/22 03:10:06;;;;;;;25.73;22.67;;;;;;;11.58;100.00;99267.41;5046632;28;20272;-57
2022/04/22 03:12:34;;;;;;;27.03;22.93;;;;;;;11.57;100.00;99271.75;5043778;28;20240;-57
2022/04/22 03:15:01;;;;;;;29.40;24.13;;;;;;;11.52;100.00;99278.88;5029693;28;20266;-57
2022/04/22 03:17:29;;;;;;;29.17;22.67;;;;;;;11.53;100.00;99285.75;5030190;28;20621;-57
2022/04/22 03:19:56;;;;;;;27.17;22.20;;;;;;;11.40;100.00;99278.50;5030088;28;20288;-60
2022/04/22 03:22:23;;;;;;;31.77;22.87;;;;;;;11.42;100.00;99280.09;5030025;28;20240;-61
2022/04/22 03:24:50;;;;;;;30.17;23.13;;;;;;;11.41;100.00;99281.00;5029812;28;20269;-60
2022/04/22 03:27:17;;;;;;;28.63;23.80;;;;;;;11.45;100.00;99284.34;5030032;28;20295;-59
2022/04/22 03:29:44;;;;;;;26.97;22.43;;;;;;;11.45;100.00;99279.16;5030092;28;20608;-59
2022/04/22 03:32:11;;;;;;;31.57;23.10;;;;;;;11.48;100.00;99269.50;5029891;28;20193;-59
2022/04/22 03:34:40;;;;;;;31.40;23.63;;;;;;;11.52;100.00;99268.47;5029865;28;20200;-60
2022/04/22 03:37:07;;;;;;;29.23;22.90;;;;;;;11.57;100.00;99271.75;5029798;28;20211;-60
2022/04/22 03:39:34;;;;;;;29.70;24.13;;;;;;;11.49;100.00;99278.16;5029935;28;20197;-58
2022/04/22 03:42:01;;;;;;;28.60;23.93;;;;;;;11.49;100.00;99281.59;5029970;28;20194;-59
2022/04/22 03:44:28;;;;;;;27.27;23.30;;;;;;;11.48;100.00;99279.91;5029582;28;20198;-59
2022/04/22 03:46:55;;;;;;;28.33;23.40;;;;;;;11.42;100.00;99272.31;5029933;28;20219;-59
2022/04/22 03:49:22;;;;;;;31.60;22.80;;;;;;;11.30;100.00;99251.97;5029724;28;20280;-60
2022/04/22 03:51:50;;;;;;;27.50;22.57;;;;;;;11.46;100.00;99278.25;5029730;28;20696;-60
2022/04/22 03:54:22;;;;;;;29.20;23.67;;;;;;;11.38;100.00;99270.75;5029557;28;20194;-60
2022/04/22 03:59:33;;;;;;;27.60;22.57;;;;;;;11.43;100.00;99262.75;5029674;28;20290;-60
2022/04/22 04:02:00;;;;;;;28.23;22.60;;;;;;;11.26;100.00;99240.00;5029523;28;20642;-56
2022/04/22 04:04:27;;;;;;;29.57;23.53;;;;;;;11.38;100.00;99265.56;5029226;28;20252;-56
2022/04/22 04:06:55;;;;;;;29.57;22.53;;;;;;;11.34;100.00;99278.69;5029329;28;20233;-56
2022/04/22 04:17:38;;;;;;;35.93;24.20;;;;;;;11.13;100.00;99255.19;5029372;28;20234;-58
2022/04/22 04:25:38;;;;;;;27.90;23.80;;;;;;;11.08;100.00;99309.00;5028648;28;20363;-61
2022/04/22 04:28:06;;;;;;;29.67;24.77;;;;;;;11.04;100.00;99314.38;5028951;28;20202;-61
2022/04/22 04:30:33;;;;;;;33.63;24.07;;;;;;;11.22;100.00;99324.13;5029108;28;20670;-60
2022/04/22 04:33:00;;;;;;;29.27;25.13;;;;;;;11.19;100.00;99306.91;5029395;28;20260;-60
2022/04/22 04:35:27;;;;;;;30.20;24.47;;;;;;;11.21;100.00;99292.13;5028179;28;20213;-59
2022/04/22 04:37:55;;;;;;;31.77;25.47;;;;;;;11.32;100.00;99291.75;5028172;28;20257;-59
2022/04/22 04:40:22;;;;;;;32.30;25.67;;;;;;;11.29;100.00;99289.25;5028055;28;20271;-59
2022/04/22 04:42:49;;;;;;;35.43;24.87;;;;;;;11.32;100.00;99302.13;5028155;28;20227;-59
2022/04/22 04:45:16;;;;;;;34.00;24.77;;;;;;;11.28;100.00;99323.94;5028411;28;20454;-60
2022/04/22 04:47:43;;;;;;;36.40;26.33;;;;;;;11.17;100.00;99313.06;5027875;28;20221;-60
2022/04/22 04:50:11;;;;;;;35.23;26.53;;;;;;;11.31;100.00;99325.56;5046557;28;20230;-58
2022/04/22 04:52:38;;;;;;;33.07;27.07;;;;;;;11.34;100.00;99321.13;5068093;28;20220;-59
2022/04/22 04:55:08;;;;;;;37.20;26.80;;;;;;;11.34;100.00;99321.13;5067443;28;20212;-60
2022/04/22 04:57:36;;;;;;;34.83;25.80;;;;;;;11.37;100.00;99312.38;5068428;28;20540;-60
2022/04/22 05:00:05;;;;;;;29.80;26.20;;;;;;;11.44;100.00;99295.66;5067263;28;20212;-60
2022/04/22 05:02:32;;;;;;;32.37;26.03;;;;;;;11.42;100.00;99294.84;5067136;28;20260;-58
2022/04/22 05:04:59;;;;;;;34.87;26.87;;;;;;;11.43;100.00;99305.19;5067352;27;20613;-59
2022/04/22 05:07:26;;;;;;;33.47;27.00;;;;;;;11.48;100.00;99315.44;5067607;27;20618;-58
2022/04/22 05:09:53;;;;;;;33.17;26.67;;;;;;;11.52;100.00;99304.84;5067420;28;20234;-59
2022/04/22 05:12:21;;;;;;;36.03;26.43;;;;;;;11.42;100.00;99306.09;5067663;28;20224;-59
2022/04/22 05:14:48;;;;;;;35.43;27.10;;;;;;;11.35;100.00;99312.41;5055954;28;20244;-60
2022/04/22 05:17:15;;;;;;;35.43;26.10;;;;;;;11.32;100.00;99314.28;5027268;28;20201;-60
2022/04/22 05:19:42;;;;;;;30.73;24.87;;;;;;;11.28;100.00;99326.53;5027184;28;20198;-60
2022/04/22 05:22:09;;;;;;;31.37;25.33;;;;;;;11.21;100.00;99335.44;5028189;28;20193;-60
2022/04/22 05:24:37;;;;;;;31.67;27.10;;;;;;;11.30;100.00;99350.69;5028047;28;20237;-60
2022/04/22 05:27:04;;;;;;;33.20;26.17;;;;;;;11.30;100.00;99353.28;5027933;28;20282;-59
2022/04/22 05:35:01;;;;;;;33.23;27.50;;;;;;;11.37;100.00;99347.00;5028148;28;20211;-61
2022/04/22 05:37:28;;;;;;;33.10;26.53;;;;;;;11.46;100.00;99327.63;5026889;28;20219;-60
2022/04/22 05:39:54;;;;;;;32.23;24.87;;;;;;;11.48;100.00;99333.63;5027729;28;20199;-61
2022/04/22 05:42:22;;;;;;;32.83;24.33;;;;;;;11.44;100.00;99340.69;5027889;28;20201;-58
2022/04/22 05:44:50;;;;;;;31.47;24.87;;;;;;;11.46;100.00;99341.47;5027642;28;20197;-58
2022/04/22 05:47:17;;;;;;;28.87;24.07;;;;;;;11.39;100.00;99328.75;5027572;28;20197;-59
2022/04/22 05:49:44;;;;;;;31.50;24.70;;;;;;;11.31;100.00;99334.22;5028185;28;20193;-58
2022/04/22 05:52:11;;;;;;;30.27;24.57;;;;;;;11.32;100.00;99342.84;5027912;28;20208;-58
2022/04/22 05:54:38;;;;;;;28.23;23.90;;;;;;;11.16;100.00;99353.78;5027795;28;20570;-58
2022/04/22 05:57:05;;;;;;;32.87;25.97;;;;;;;11.13;100.00;99359.06;5027551;28;20219;-58
2022/04/22 05:59:32;;;;;;;27.37;24.40;;;;;;;11.17;100.00;99362.44;5027549;28;20200;-58
2022/04/22 06:02:00;;;;;;;31.70;25.50;;;;;;;11.07;100.00;99345.44;5035305;28;20190;-57
2022/04/22 06:04:27;;;;;;;31.70;25.57;;;;;;;11.03;100.00;99329.13;5036013;28;20197;-58
2022/04/22 06:06:54;;;;;;;33.87;26.13;;;;;;;11.19;100.00;99332.03;5037118;28;20209;-59
2022/04/22 06:12:05;;;;;;;32.23;27.27;;;;;;;11.29;100.00;99354.19;5031272;28;20281;-60
2022/04/22 06:14:32;;;;;;;33.27;27.40;;;;;;;11.40;100.00;99338.25;5034756;28;20203;-59
2022/04/22 06:17:01;;;;;;;37.77;27.33;;;;;;;11.39;100.00;99337.41;5034397;28;20232;-59
2022/04/22 06:19:27;;;;;;;35.30;26.50;;;;;;;11.44;100.00;99337.22;5033691;28;20204;-59
2022/04/22 06:21:54;;;;;;;37.43;29.47;;;;;;;11.42;100.00;99331.22;5031391;28;20297;-59
2022/04/22 06:24:21;;;;;;;37.13;28.97;;;;;;;11.43;100.00;99325.13;5037976;28;20615;-59
2022/04/22 06:26:48;;;;;;;41.90;33.57;;;;;;;11.40;100.00;99327.88;5040521;28;20243;-60
2022/04/22 06:29:16;;;;;;;49.80;34.47;;;;;;;11.42;100.00;99326.88;5046792;28;20326;-59
2022/04/22 06:31:43;;;;;;;48.27;38.37;;;;;;;11.49;100.00;99323.19;5047062;28;20197;-59
2022/04/22 06:34:12;;;;;;;50.67;40.90;;;;;;;11.48;100.00;99316.28;5038464;28;20192;-59
2022/04/22 06:36:40;;;;;;;51.23;40.87;;;;;;;11.35;100.00;99312.41;5036502;28;20184;-59
2022/04/22 06:39:07;;;;;;;59.07;45.00;;;;;;;11.43;100.00;99305.19;5035026;28;20201;-58
2022/04/22 06:47:11;;;;;;;50.03;36.70;;;;;;;11.20;100.00;99254.03;5035286;28;20275;-59
2022/04/22 06:49:40;;;;;;;44.70;33.00;;;;;;;11.28;100.00;99241.66;5037853;28;20196;-60
2022/04/22 06:52:08;;;;;;;34.63;27.03;;;;;;;11.31;100.00;99251.06;5038504;28;20250;-57
2022/04/22 06:54:36;;;;;;;35.97;25.80;;;;;;;11.54;100.00;99247.63;5045207;28;20200;-57
2022/04/22 06:57:04;;;;;;;34.10;25.07;;;;;;;11.71;100.00;99239.22;5043546;28;20194;-57
2022/04/22 06:59:31;;;;;;;30.07;23.43;;;;;;;11.71;100.00;99232.25;5038831;28;20203;-58
2022/04/22 07:01:58;;;;;;;28.53;23.63;;;;;;;11.82;100.00;99244.88;5029325;28;20211;-56
2022/04/22 07:04:26;;;;;;;67.30;29.93;;;;;;;12.03;100.00;99245.81;5029380;28;20209;-57
2022/04/22 07:06:55;;;;;;;113.13;38.57;;;;;;;12.17;100.00;99249.56;5029218;28;20221;-56
2022/04/22 07:09:22;;;;;;;22.57;20.13;;;;;;;12.23;100.00;99241.50;5029648;28;20743;-56
2022/04/22 07:11:52;;;;;;;22.70;19.43;;;;;;;12.29;100.00;99230.03;5029283;28;20197;-56
2022/04/22 07:14:21;;;;;;;24.47;19.50;;;;;;;12.27;100.00;99232.69;5029133;28;20201;-57
2022/04/22 07:16:48;;;;;;;22.93;19.20;;;;;;;12.29;100.00;99230.88;5030346;28;20658;-57
2022/04/22 07:19:15;;;;;;;21.10;18.70;;;;;;;12.39;100.00;99240.91;5030138;28;20229;-57
2022/04/22 07:21:42;;;;;;;24.13;19.00;;;;;;;12.43;100.00;99252.88;5030071;28;20591;-57
2022/04/22 07:24:12;;;;;;;19.13;17.13;;;;;;;12.62;100.00;99248.63;5043180;28;20205;-58
2022/04/22 07:26:42;;;;;;;23.90;18.97;;;;;;;12.54;100.00;99255.88;5038719;28;20217;-57
2022/04/22 07:29:10;;;;;;;22.17;18.33;;;;;;;12.49;100.00;99256.09;5039253;28;20595;-56
2022/04/22 07:31:37;;;;;;;20.47;17.03;;;;;;;12.49;100.00;99240.47;5040689;28;20212;-59
2022/04/22 07:34:04;;;;;;;22.15;19.73;;;;;;;12.51;100.00;99237.81;5048430;28;20451;-56
2022/04/22 07:36:32;;;;;;;20.07;18.07;;;;;;;12.62;100.00;99239.06;5049540;28;20283;-56
2022/04/22 07:38:59;;;;;;;19.40;17.37;;;;;;;12.66;100.00;99229.34;5049819;28;20594;-57
2022/04/22 07:41:29;;;;;;;22.80;18.60;;;;;;;12.76;100.00;99225.44;5049154;28;20689;-57
2022/04/22 07:46:58;;;;;;;19.33;17.40;;;;;;;12.84;100.00;99236.41;5049180;28;20228;-57
2022/04/22 07:49:26;;;;;;;18.97;17.03;;;;;;;13.00;100.00;99236.56;5049981;28;20281;-57
2022/04/22 07:51:53;;;;;;;18.33;16.50;;;;;;;13.20;100.00;99233.16;5049326;28;20207;-56
2022/04/22 07:54:20;;;;;;;16.37;14.73;;;;;;;13.40;100.00;99228.75;5049105;28;20588;-57
2022/04/22 07:56:48;;;;;;;15.77;14.10;;;;;;;13.45;100.00;99220.69;5049331;28;20194;-57
2022/04/22 07:59:15;;;;;;;15.67;14.17;;;;;;;13.47;100.00;99218.03;5048590;28;20208;-56
2022/04/22 08:01:42;;;;;;;16.40;14.70;;;;;;;13.30;100.00;99217.03;5049110;28;20200;-57
2022/04/22 08:04:11;;;;;;;18.30;15.77;;;;;;;13.26;100.00;99207.66;5049431;28;20599;-56
2022/04/22 08:06:38;;;;;;;16.10;14.47;;;;;;;13.28;100.00;99213.66;5048913;28;20232;-56
2022/04/22 08:09:05;;;;;;;18.53;15.33;;;;;;;13.42;100.00;99215.66;5049383;28;20201;-56
2022/04/22 08:11:31;;;;;;;17.43;14.60;;;;;;;13.46;100.00;99211.97;5048930;28;20288;-57
2022/04/22 08:14:00;;;;;;;16.73;15.07;;;;;;;13.48;100.00;99223.19;5048860;28;20203;-56
2022/04/22 08:16:27;;;;;;;16.00;14.40;;;;;;;13.38;100.00;99214.94;5048944;28;20197;-56
2022/04/22 08:18:54;;;;;;;17.27;15.33;;;;;;;13.32;100.00;99209.13;5049027;28;20197;-56
2022/04/22 08:21:21;;;;;;;16.13;14.67;;;;;;;13.34;100.00;99191.66;5048630;28;20228;-57
2022/04/22 08:23:48;;;;;;;17.73;16.13;;;;;;;13.77;100.00;99200.97;5048956;28;20207;-60
2022/04/22 08:26:15;;;;;;;17.53;15.07;;;;;;;14.15;100.00;99199.16;5048794;28;20624;-60
2022/04/22 08:28:43;;;;;;;17.17;15.03;;;;;;;15.07;100.00;99204.09;5048839;28;20677;-60
2022/04/22 08:31:14;;;;;;;17.30;13.90;;;;;;;16.37;100.00;99208.31;5049058;28;20203;-59
2022/04/22 08:33:43;;;;;;;15.13;13.50;;;;;;;17.84;100.00;99214.31;5048636;28;20699;-60
2022/04/22 08:36:10;;;;;;;16.63;12.60;;;;;;;19.03;96.42;99212.59;5048672;28;20189;-56
2022/04/22 08:38:37;;;;;;;14.23;12.83;;;;;;;19.61;91.07;99197.22;5048682;28;20201;-58
2022/04/22 08:41:06;;;;;;;13.10;12.00;;;;;;;20.25;89.68;99188.13;5048670;28;20225;-58
2022/04/22 08:43:34;;;;;;;15.45;12.75;;;;;;;20.80;85.23;99186.69;5048525;28;20200;-57
2022/04/22 08:46:01;;;;;;;13.10;11.77;;;;;;;20.82;85.32;99195.31;5048553;28;20674;-57
2022/04/22 08:51:16;;;;;;;13.60;12.30;;;;;;;20.22;87.98;99198.91;5048457;28;20578;-57
2022/04/22 08:53:45;;;;;;;12.85;11.77;;;;;;;20.34;86.92;99189.25;5048528;28;20680;-57
2022/04/22 08:56:13;;;;;;;13.35;12.05;;;;;;;20.30;87.29;99178.09;5048456;28;20558;-58
2022/04/22 08:58:40;;;;;;;13.25;11.95;;;;;;;19.81;89.78;99178.19;5048149;28;20192;-57
2022/04/22 09:01:08;;;;;;;12.27;10.63;;;;;;;19.29;89.19;99178.41;5048617;28;20646;-57
2022/04/22 09:03:36;;;;;;;11.70;10.70;;;;;;;19.09;91.37;99177.97;5048393;28;20647;-57
2022/04/22 09:06:04;;;;;;;14.07;11.43;;;;;;;18.73;92.68;99170.00;5048059;28;20203;-56
2022/04/22 09:08:31;;;;;;;12.27;11.18;;;;;;;18.59;93.73;99184.06;5048149;28;20689;-57
2022/04/22 09:11:02;;;;;;;11.35;10.55;;;;;;;18.32;95.48;99175.31;5048335;28;20585;-57
2022/04/22 09:13:31;;;;;;;12.23;11.27;;;;;;;17.76;98.29;99174.59;5047872;28;20295;-57
2022/04/22 09:15:58;;;;;;;12.73;11.60;;;;;;;17.50;100.00;99178.81;5048286;28;20197;-57
2022/04/22 09:18:26;;;;;;;12.57;11.37;;;;;;;17.36;100.00;99157.88;5047853;28;20288;-56
2022/04/22 09:21:02;;;;;;;15.03;13.40;;;;;;;17.25;100.00;99166.41;5065317;28;20592;-56
2022/04/22 09:23:33;;;;;;;13.47;12.17;;;;;;;17.23;100.00;99163.03;5066845;28;20204;-56
2022/04/22 09:26:00;;;;;;;15.97;13.00;;;;;;;17.02;100.00;99157.31;5067279;28;20452;-55
2022/04/22 09:28:28;;;;;;;13.20;11.67;;;;;;;16.80;100.00;99161.31;5067685;28;20206;-58
2022/04/22 09:30:59;;;;;;;13.73;12.53;;;;;;;16.43;100.00;99150.34;5068043;28;20239;-58
2022/04/22 09:33:26;;;;;;;12.70;11.70;;;;;;;16.37;100.00;99137.59;5067590;28;20207;-57
2022/04/22 09:44:24;;;;;;;14.20;12.90;;;;;;;16.28;100.00;99133.75;5067755;28;20199;-58
2022/04/22 09:47:10;;;;;;;13.63;12.30;;;;;;;16.31;100.00;99122.25;5067480;28;20220;-57
2022/04/22 09:49:43;;;;;;;13.77;12.40;;;;;;;16.28;100.00;99112.78;5067631;28;20603;-58
2022/04/22 09:52:11;;;;;;;14.70;12.00;;;;;;;16.16;100.00;99096.94;5067481;28;20287;-57
2022/04/22 09:54:39;;;;;;;11.90;10.83;;;;;;;16.41;100.00;99099.81;5067410;28;20202;-57
2022/04/22 09:57:06;;;;;;;12.27;11.17;;;;;;;16.70;100.00;99093.72;5067273;28;20255;-55
2022/04/22 09:59:35;;;;;;;23.23;12.60;;;;;;;17.32;100.00;99099.50;5067302;28;20199;-57
2022/04/22 10:02:02;;;;;;;12.17;10.90;;;;;;;18.13;100.00;99089.03;5047321;28;20257;-56
2022/04/22 10:04:31;;;;;;;12.37;11.07;;;;;;;18.78;98.09;99102.16;5047421;28;20192;-56
2022/04/22 10:07:02;;;;;;;11.32;10.35;;;;;;;19.54;94.27;99058.13;5047366;28;20220;-57
2022/04/22 10:09:33;;;;;;;10.95;9.85;;;;;;;19.30;92.93;99032.72;5047420;28;20193;-57
2022/04/22 10:12:02;;;;;;;10.40;9.50;;;;;;;20.37;90.01;99060.75;5047316;28;20207;-58
2022/04/22 10:14:36;;;;;;;11.48;10.27;;;;;;;20.22;90.50;99072.41;5047499;28;20196;-58
2022/04/22 10:17:05;;;;;;;11.13;10.20;;;;;;;20.32;90.97;99073.38;5047205;28;20683;-57
2022/04/22 10:19:34;;;;;;;10.88;9.85;;;;;;;20.25;91.46;99062.47;5047066;28;20200;-57
2022/04/22 10:22:02;;;;;;;11.80;10.85;;;;;;;20.22;90.82;99067.13;5046534;28;20209;-58
2022/04/22 10:24:32;;;;;;;12.77;11.05;;;;;;;19.42;94.57;99045.81;5047305;28;20235;-58
2022/04/22 10:27:00;;;;;;;13.27;10.50;;;;;;;19.23;96.66;99033.16;5047211;28;20216;-56
2022/04/22 10:29:29;;;;;;;12.00;10.57;;;;;;;18.97;98.61;99031.53;5047041;28;20208;-58
2022/04/22 10:31:57;;;;;;;12.00;11.00;;;;;;;18.71;99.81;99022.88;5047168;28;20196;-59
2022/04/22 10:34:38;;;;;;;11.85;10.90;;;;;;;18.61;100.00;99034.97;5046986;28;20689;-59
2022/04/22 10:37:05;;;;;;;12.32;11.25;;;;;;;18.56;100.00;99016.00;5047089;28;20200;-60
2022/04/22 10:39:36;;;;;;;12.32;11.20;;;;;;;18.63;100.00;99019.91;5047053;28;20669;-61
2022/04/22 10:42:09;;;;;;;12.02;10.85;;;;;;;18.47;100.00;99014.03;5046967;28;20196;-59
2022/04/22 10:47:53;;;;;;;11.27;10.30;;;;;;;19.02;98.94;99018.06;5046860;28;20232;-60
2022/04/22 10:50:28;;;;;;;11.18;10.13;;;;;;;19.23;97.65;98995.47;5045410;28;20567;-59
2022/04/22 10:53:03;;;;;;;12.60;10.60;;;;;;;19.48;96.90;99008.56;5037639;28;20203;-60
2022/04/22 10:55:36;;;;;;;11.32;10.38;;;;;;;19.36;96.47;98988.38;5041731;28;20319;-58
2022/04/22 10:58:23;;;;;;;10.52;9.63;;;;;;;19.09;97.40;98998.25;5046972;28;20208;-59
2022/04/22 11:00:52;;;;;;;10.07;9.18;;;;;;;18.95;98.31;98998.41;5046823;28;20226;-59
2022/04/22 11:03:20;;;;;;;10.93;9.77;;;;;;;18.88;100.00;98982.22;5046674;28;20600;-59
2022/04/22 11:05:55;;;;;;;10.57;9.57;;;;;;;18.72;100.00;98974.59;5043882;28;20203;-59
2022/04/22 11:08:31;;;;;;;10.07;8.98;;;;;;;18.89;100.00;98973.38;5034850;28;20241;-60
2022/04/22 11:11:15;;;;;;;10.67;8.73;;;;;;;19.17;99.61;98978.34;5035608;28;20621;-58
2022/04/22 11:13:52;;;;;;;14.75;8.93;;;;;;;19.46;98.17;98978.84;5038112;28;20657;-59
2022/04/22 11:16:32;;;;;;;11.25;8.25;;;;;;;19.76;97.18;98975.75;5037438;28;20224;-59
2022/04/22 11:19:37;;;;;;;9.65;8.82;;;;;;;19.69;98.34;98963.16;5036833;28;20229;-59
2022/04/22 11:22:07;;;;;;;9.95;9.15;;;;;;;19.63;99.30;98948.69;5036501;28;20198;-59
2022/04/22 11:24:34;;;;;;;12.10;9.75;;;;;;;19.44;100.00;98951.81;5034956;28;20709;-58
2022/04/22 11:27:08;;;;;;;8.82;8.00;;;;;;;19.57;100.00;98942.06;5035823;28;20624;-59
2022/04/22 11:29:35;;;;;;;9.70;8.73;;;;;;;19.67;99.63;98933.47;5035172;28;20242;-59
2022/04/22 11:32:12;;;;;;;9.52;8.63;;;;;;;19.76;99.97;98924.88;5035576;28;20193;-59
2022/04/22 11:35:14;;;;;;;10.25;9.30;;;;;;;19.89;100.00;98920.38;5036612;28;20197;-59
2022/04/22 11:37:42;;;;;;;10.55;9.48;;;;;;;19.93;100.00;98908.66;5046651;28;20646;-59
2022/04/22 11:40:10;;;;;;;10.38;8.65;;;;;;;20.18;99.68;98907.59;5049758;28;20684;-59
2022/04/22 11:42:43;;;;;;;11.07;8.23;;;;;;;20.31;98.82;98892.50;5043800;28;20197;-59
2022/04/22 11:45:13;;;;;;;7.57;6.97;;;;;;;20.22;96.48;98894.03;5038860;28;20201;-60
2022/04/22 11:47:42;;;;;;;7.40;6.85;;;;;;;20.23;96.17;98874.66;5034262;28;20294;-59
2022/04/22 11:50:10;;;;;;;7.10;6.40;;;;;;;20.31;95.18;98866.16;5036988;28;20198;-59
2022/04/22 11:52:37;;;;;;;7.50;6.28;;;;;;;20.34;95.07;98859.78;5037182;28;20693;-59
2022/04/22 11:55:06;;;;;;;7.95;6.20;;;;;;;20.35;95.77;98869.38;5038801;28;20641;-59
2022/04/22 11:57:38;;;;;;;6.18;5.68;;;;;;;20.45;95.08;98865.06;5038979;28;20698;-58
2022/04/22 12:05:42;;;;;;;6.30;5.80;;;;;;;20.65;94.58;98830.06;5038015;28;20242;-59
2022/04/22 12:08:13;;;;;;;8.88;6.22;;;;;;;20.62;95.88;98825.03;5045856;28;20219;-59
2022/04/22 12:10:40;;;;;;;9.98;5.70;;;;;;;20.66;92.70;98808.81;5049201;28;20257;-59
2022/04/22 12:13:08;;;;;;;5.65;5.15;;;;;;;20.60;93.46;98806.69;5049279;28;20204;-58
2022/04/22 12:15:43;;;;;;;4.97;4.47;;;;;;;20.64;94.09;98810.75;5048984;28;20205;-59
2022/04/22 12:18:28;;;;;;;5.32;4.93;;;;;;;20.69;94.85;98801.63;5043576;28;20205;-59
2022/04/22 12:20:55;;;;;;;7.95;4.97;;;;;;;20.70;95.66;98796.22;5028822;28;20709;-58
2022/04/22 12:23:22;;;;;;;5.00;4.65;;;;;;;20.82;96.13;98787.31;5028951;28;20205;-59
2022/04/22 12:25:56;;;;;;;5.53;4.90;;;;;;;20.93;96.34;98784.63;5028865;28;20655;-59
2022/04/22 12:28:26;;;;;;;5.30;4.80;;;;;;;21.07;95.07;98774.72;5029000;28;20229;-58